sensor_id;sensor_type;location;lat;lon;timestamp;P1;durP1;ratioP1;P2;durP2;ratioP2
6485;SDS011;3276;48.490;9.222;2022-07-11T00:01:34;783.63;;;735.93;;
6485;SDS011;3276;48.490;9.222;2022-07-11T00:03:59;647.23;;;606.77;;
6485;SDS011;3276;48.490;9.222;2022-07-11T00:06:25;785.37;;;734.60;;
6485;SDS011;3276;48.490;9.222;2022-07-11T00:08:50;749.43;;;702.93;;
6485;SDS011;3276;48.490;9.222;2022-07-11T00:11:16;618.10;;;583.60;;
6485;SDS011;3276;48.490;9.222;2022-07-11T00:13:41;689.40;;;648.00;;
6485;SDS011;3276;48.490;9.222;2022-07-11T00:16:07;807.37;;;759.30;;
6485;SDS011;3276;48.490;9.222;2022-07-11T00:18:33;828.43;;;777.07;;
6485;SDS011;3276;48.490;9.222;2022-07-11T00:20:58;412.70;;;391.80;;
6485;SDS011;3276;48.490;9.222;2022-07-11T00:23:24;698.73;;;655.27;;
6485;SDS011;3276;48.490;9.222;2022-07-11T00:25:49;854.07;;;799.43;;
6485;SDS011;3276;48.490;9.222;2022-07-11T00:28:15;435.53;;;414.23;;
6485;SDS011;3276;48.490;9.222;2022-07-11T00:30:40;464.73;;;442.50;;
6485;SDS011;3276;48.490;9.222;2022-07-11T00:33:06;862.03;;;808.53;;
6485;SDS011;3276;48.490;9.222;2022-07-11T00:35:31;799.47;;;751.37;;
6485;SDS011;3276;48.490;9.222;2022-07-11T00:37:57;664.13;;;629.10;;
6485;SDS011;3276;48.490;9.222;2022-07-11T00:40:23;746.53;;;701.10;;
6485;SDS011;3276;48.490;9.222;2022-07-11T00:42:48;655.87;;;617.63;;
6485;SDS011;3276;48.490;9.222;2022-07-11T00:45:14;886.30;;;829.40;;
6485;SDS011;3276;48.490;9.222;2022-07-11T00:47:39;727.57;;;682.07;;
6485;SDS011;3276;48.490;9.222;2022-07-11T00:50:05;744.43;;;699.03;;
6485;SDS011;3276;48.490;9.222;2022-07-11T00:52:31;721.20;;;678.53;;
6485;SDS011;3276;48.490;9.222;2022-07-11T00:54:58;810.30;;;758.97;;
6485;SDS011;3276;48.490;9.222;2022-07-11T00:57:23;689.50;;;649.37;;
6485;SDS011;3276;48.490;9.222;2022-07-11T00:59:49;805.47;;;754.83;;
6485;SDS011;3276;48.490;9.222;2022-07-11T01:02:15;713.77;;;670.73;;
6485;SDS011;3276;48.490;9.222;2022-07-11T01:04:41;644.03;;;604.67;;
6485;SDS011;3276;48.490;9.222;2022-07-11T01:07:06;531.93;;;503.13;;
6485;SDS011;3276;48.490;9.222;2022-07-11T01:09:32;671.43;;;631.60;;
6485;SDS011;3276;48.490;9.222;2022-07-11T01:11:58;662.60;;;622.50;;
6485;SDS011;3276;48.490;9.222;2022-07-11T01:14:23;773.47;;;725.77;;
6485;SDS011;3276;48.490;9.222;2022-07-11T01:16:49;525.53;;;497.17;;
6485;SDS011;3276;48.490;9.222;2022-07-11T01:19:16;641.23;;;602.50;;
6485;SDS011;3276;48.490;9.222;2022-07-11T01:21:42;643.83;;;603.80;;
6485;SDS011;3276;48.490;9.222;2022-07-11T01:24:11;787.97;;;741.13;;
6485;SDS011;3276;48.490;9.222;2022-07-11T01:26:37;877.73;;;820.93;;
6485;SDS011;3276;48.490;9.222;2022-07-11T01:29:09;598.07;;;562.67;;
6485;SDS011;3276;48.490;9.222;2022-07-11T01:31:39;558.03;;;525.97;;
6485;SDS011;3276;48.490;9.222;2022-07-11T01:34:06;812.33;;;761.70;;
6485;SDS011;3276;48.490;9.222;2022-07-11T01:36:32;633.70;;;596.50;;
6485;SDS011;3276;48.490;9.222;2022-07-11T01:38:58;756.03;;;709.60;;
6485;SDS011;3276;48.490;9.222;2022-07-11T01:41:23;901.10;;;842.10;;
6485;SDS011;3276;48.490;9.222;2022-07-11T01:43:49;615.33;;;581.03;;
6485;SDS011;3276;48.490;9.222;2022-07-11T01:46:15;430.60;;;410.20;;
6485;SDS011;3276;48.490;9.222;2022-07-11T01:48:42;722.97;;;680.70;;
6485;SDS011;3276;48.490;9.222;2022-07-11T01:51:07;642.97;;;605.13;;
6485;SDS011;3276;48.490;9.222;2022-07-11T01:53:33;826.07;;;773.83;;
6485;SDS011;3276;48.490;9.222;2022-07-11T01:55:59;743.57;;;701.27;;
6485;SDS011;3276;48.490;9.222;2022-07-11T01:58:24;827.93;;;776.53;;
6485;SDS011;3276;48.490;9.222;2022-07-11T02:00:50;907.73;;;847.97;;
6485;SDS011;3276;48.490;9.222;2022-07-11T02:03:15;635.00;;;600.27;;
6485;SDS011;3276;48.490;9.222;2022-07-11T02:05:41;850.67;;;796.07;;
6485;SDS011;3276;48.490;9.222;2022-07-11T02:08:07;644.83;;;608.70;;
6485;SDS011;3276;48.490;9.222;2022-07-11T02:10:36;848.50;;;793.63;;
6485;SDS011;3276;48.490;9.222;2022-07-11T02:13:06;410.13;;;390.43;;
6485;SDS011;3276;48.490;9.222;2022-07-11T02:15:31;771.90;;;722.83;;
6485;SDS011;3276;48.490;9.222;2022-07-11T02:17:57;688.03;;;646.73;;
6485;SDS011;3276;48.490;9.222;2022-07-11T02:20:23;718.40;;;674.97;;
6485;SDS011;3276;48.490;9.222;2022-07-11T02:22:49;560.23;;;527.33;;
6485;SDS011;3276;48.490;9.222;2022-07-11T02:25:15;544.50;;;514.20;;
6485;SDS011;3276;48.490;9.222;2022-07-11T02:27:41;463.10;;;439.23;;
6485;SDS011;3276;48.490;9.222;2022-07-11T02:30:07;911.67;;;851.57;;
6485;SDS011;3276;48.490;9.222;2022-07-11T02:32:33;716.77;;;672.33;;
6485;SDS011;3276;48.490;9.222;2022-07-11T02:34:59;706.80;;;664.07;;
6485;SDS011;3276;48.490;9.222;2022-07-11T02:37:25;922.17;;;862.30;;
6485;SDS011;3276;48.490;9.222;2022-07-11T02:39:51;708.53;;;670.60;;
6485;SDS011;3276;48.490;9.222;2022-07-11T02:42:17;691.07;;;649.57;;
6485;SDS011;3276;48.490;9.222;2022-07-11T02:44:43;746.33;;;700.47;;
6485;SDS011;3276;48.490;9.222;2022-07-11T02:47:10;751.30;;;702.47;;
6485;SDS011;3276;48.490;9.222;2022-07-11T02:49:36;746.73;;;702.33;;
6485;SDS011;3276;48.490;9.222;2022-07-11T02:52:01;906.07;;;848.63;;
6485;SDS011;3276;48.490;9.222;2022-07-11T02:54:27;666.90;;;632.13;;
6485;SDS011;3276;48.490;9.222;2022-07-11T02:56:53;674.63;;;638.50;;
6485;SDS011;3276;48.490;9.222;2022-07-11T02:59:19;763.40;;;715.70;;
6485;SDS011;3276;48.490;9.222;2022-07-11T03:01:44;792.13;;;743.33;;
6485;SDS011;3276;48.490;9.222;2022-07-11T03:04:10;778.37;;;730.87;;
6485;SDS011;3276;48.490;9.222;2022-07-11T03:06:36;761.80;;;715.40;;
6485;SDS011;3276;48.490;9.222;2022-07-11T03:09:03;677.17;;;638.87;;
6485;SDS011;3276;48.490;9.222;2022-07-11T03:11:30;648.87;;;609.57;;
6485;SDS011;3276;48.490;9.222;2022-07-11T03:13:56;587.90;;;554.20;;
6485;SDS011;3276;48.490;9.222;2022-07-11T03:16:22;672.03;;;630.70;;
6485;SDS011;3276;48.490;9.222;2022-07-11T03:18:47;826.43;;;777.20;;
6485;SDS011;3276;48.490;9.222;2022-07-11T03:21:13;603.10;;;567.37;;
6485;SDS011;3276;48.490;9.222;2022-07-11T03:23:38;639.67;;;601.33;;
6485;SDS011;3276;48.490;9.222;2022-07-11T03:26:04;755.20;;;707.60;;
6485;SDS011;3276;48.490;9.222;2022-07-11T03:28:30;787.63;;;737.67;;
6485;SDS011;3276;48.490;9.222;2022-07-11T03:30:55;707.57;;;666.50;;
6485;SDS011;3276;48.490;9.222;2022-07-11T03:33:21;699.47;;;658.13;;
6485;SDS011;3276;48.490;9.222;2022-07-11T03:35:47;810.33;;;757.00;;
6485;SDS011;3276;48.490;9.222;2022-07-11T03:38:14;627.90;;;591.07;;
6485;SDS011;3276;48.490;9.222;2022-07-11T03:40:43;702.63;;;660.83;;
6485;SDS011;3276;48.490;9.222;2022-07-11T03:43:08;743.33;;;699.33;;
6485;SDS011;3276;48.490;9.222;2022-07-11T03:45:34;502.90;;;475.50;;
6485;SDS011;3276;48.490;9.222;2022-07-11T03:48:00;665.17;;;622.03;;
6485;SDS011;3276;48.490;9.222;2022-07-11T03:50:26;839.37;;;785.07;;
6485;SDS011;3276;48.490;9.222;2022-07-11T03:52:51;778.77;;;729.83;;
6485;SDS011;3276;48.490;9.222;2022-07-11T03:55:17;698.47;;;656.73;;
6485;SDS011;3276;48.490;9.222;2022-07-11T03:57:43;805.80;;;753.90;;
6485;SDS011;3276;48.490;9.222;2022-07-11T04:00:09;469.43;;;446.10;;
6485;SDS011;3276;48.490;9.222;2022-07-11T04:02:35;716.17;;;675.43;;
6485;SDS011;3276;48.490;9.222;2022-07-11T04:05:01;762.07;;;715.80;;
6485;SDS011;3276;48.490;9.222;2022-07-11T04:07:27;833.93;;;781.17;;
6485;SDS011;3276;48.490;9.222;2022-07-11T04:09:53;908.70;;;849.03;;
6485;SDS011;3276;48.490;9.222;2022-07-11T04:12:19;645.97;;;609.30;;
6485;SDS011;3276;48.490;9.222;2022-07-11T04:14:45;791.10;;;743.20;;
6485;SDS011;3276;48.490;9.222;2022-07-11T04:17:10;693.73;;;651.33;;
6485;SDS011;3276;48.490;9.222;2022-07-11T04:19:36;575.33;;;542.83;;
6485;SDS011;3276;48.490;9.222;2022-07-11T04:22:03;614.70;;;580.03;;
6485;SDS011;3276;48.490;9.222;2022-07-11T04:24:29;860.67;;;808.17;;
6485;SDS011;3276;48.490;9.222;2022-07-11T04:26:54;587.33;;;555.00;;
6485;SDS011;3276;48.490;9.222;2022-07-11T04:29:20;719.53;;;678.00;;
6485;SDS011;3276;48.490;9.222;2022-07-11T04:31:45;587.57;;;554.80;;
6485;SDS011;3276;48.490;9.222;2022-07-11T04:34:11;549.73;;;520.23;;
6485;SDS011;3276;48.490;9.222;2022-07-11T04:36:36;678.77;;;641.87;;
6485;SDS011;3276;48.490;9.222;2022-07-11T04:39:02;780.40;;;731.97;;
6485;SDS011;3276;48.490;9.222;2022-07-11T04:41:28;616.67;;;583.83;;
6485;SDS011;3276;48.490;9.222;2022-07-11T04:43:53;820.10;;;767.17;;
6485;SDS011;3276;48.490;9.222;2022-07-11T04:46:19;798.73;;;748.60;;
6485;SDS011;3276;48.490;9.222;2022-07-11T04:48:44;546.50;;;515.77;;
6485;SDS011;3276;48.490;9.222;2022-07-11T04:51:10;786.60;;;733.77;;
6485;SDS011;3276;48.490;9.222;2022-07-11T04:53:35;710.73;;;668.30;;
6485;SDS011;3276;48.490;9.222;2022-07-11T04:56:01;815.60;;;765.43;;
6485;SDS011;3276;48.490;9.222;2022-07-11T04:58:26;769.47;;;721.17;;
6485;SDS011;3276;48.490;9.222;2022-07-11T05:00:52;869.50;;;809.97;;
6485;SDS011;3276;48.490;9.222;2022-07-11T05:03:18;751.67;;;705.70;;
6485;SDS011;3276;48.490;9.222;2022-07-11T05:05:45;735.33;;;692.87;;
6485;SDS011;3276;48.490;9.222;2022-07-11T05:08:11;942.13;;;876.33;;
6485;SDS011;3276;48.490;9.222;2022-07-11T05:10:36;723.53;;;678.70;;
6485;SDS011;3276;48.490;9.222;2022-07-11T05:13:03;733.20;;;685.60;;
6485;SDS011;3276;48.490;9.222;2022-07-11T05:15:30;716.67;;;674.03;;
6485;SDS011;3276;48.490;9.222;2022-07-11T05:17:55;773.53;;;724.20;;
6485;SDS011;3276;48.490;9.222;2022-07-11T05:20:21;817.87;;;762.87;;
6485;SDS011;3276;48.490;9.222;2022-07-11T05:22:47;711.60;;;669.60;;
6485;SDS011;3276;48.490;9.222;2022-07-11T05:25:13;957.27;;;886.13;;
6485;SDS011;3276;48.490;9.222;2022-07-11T05:27:38;811.97;;;757.33;;
6485;SDS011;3276;48.490;9.222;2022-07-11T05:30:04;724.70;;;679.67;;
6485;SDS011;3276;48.490;9.222;2022-07-11T05:32:30;874.37;;;813.93;;
6485;SDS011;3276;48.490;9.222;2022-07-11T05:34:56;767.13;;;718.57;;
6485;SDS011;3276;48.490;9.222;2022-07-11T05:37:23;760.33;;;711.50;;
6485;SDS011;3276;48.490;9.222;2022-07-11T05:39:49;782.77;;;728.03;;
6485;SDS011;3276;48.490;9.222;2022-07-11T05:42:15;755.40;;;705.47;;
6485;SDS011;3276;48.490;9.222;2022-07-11T05:44:41;805.03;;;748.60;;
6485;SDS011;3276;48.490;9.222;2022-07-11T05:47:07;833.03;;;769.67;;
6485;SDS011;3276;48.490;9.222;2022-07-11T05:49:33;887.93;;;815.53;;
6485;SDS011;3276;48.490;9.222;2022-07-11T05:51:58;901.43;;;832.93;;
6485;SDS011;3276;48.490;9.222;2022-07-11T05:54:25;896.07;;;827.00;;
6485;SDS011;3276;48.490;9.222;2022-07-11T05:56:50;961.37;;;877.83;;
6485;SDS011;3276;48.490;9.222;2022-07-11T05:59:16;971.60;;;885.60;;
6485;SDS011;3276;48.490;9.222;2022-07-11T06:01:41;1096.63;;;977.57;;
6485;SDS011;3276;48.490;9.222;2022-07-11T06:04:07;1046.83;;;942.93;;
6485;SDS011;3276;48.490;9.222;2022-07-11T06:06:32;1066.93;;;953.17;;
6485;SDS011;3276;48.490;9.222;2022-07-11T06:08:58;940.87;;;855.27;;
6485;SDS011;3276;48.490;9.222;2022-07-11T06:11:24;981.30;;;888.63;;
6485;SDS011;3276;48.490;9.222;2022-07-11T06:13:50;1051.97;;;937.07;;
6485;SDS011;3276;48.490;9.222;2022-07-11T06:16:16;1045.87;;;926.97;;
6485;SDS011;3276;48.490;9.222;2022-07-11T06:18:42;971.90;;;872.70;;
6485;SDS011;3276;48.490;9.222;2022-07-11T06:21:08;999.07;;;898.07;;
6485;SDS011;3276;48.490;9.222;2022-07-11T06:23:34;1040.90;;;928.67;;
6485;SDS011;3276;48.490;9.222;2022-07-11T06:26:00;1063.77;;;943.37;;
6485;SDS011;3276;48.490;9.222;2022-07-11T06:28:26;1016.07;;;908.00;;
6485;SDS011;3276;48.490;9.222;2022-07-11T06:30:52;907.47;;;821.03;;
6485;SDS011;3276;48.490;9.222;2022-07-11T06:33:18;1218.00;;;980.17;;
6485;SDS011;3276;48.490;9.222;2022-07-11T06:35:45;948.17;;;850.83;;
6485;SDS011;3276;48.490;9.222;2022-07-11T06:38:11;1008.37;;;904.37;;
6485;SDS011;3276;48.490;9.222;2022-07-11T06:40:38;999.90;;;892.90;;
6485;SDS011;3276;48.490;9.222;2022-07-11T06:43:04;1159.97;;;965.20;;
6485;SDS011;3276;48.490;9.222;2022-07-11T06:45:31;986.80;;;885.90;;
6485;SDS011;3276;48.490;9.222;2022-07-11T06:47:57;1038.77;;;926.70;;
6485;SDS011;3276;48.490;9.222;2022-07-11T06:50:23;991.37;;;894.80;;
6485;SDS011;3276;48.490;9.222;2022-07-11T06:52:48;1059.90;;;950.37;;
6485;SDS011;3276;48.490;9.222;2022-07-11T06:55:14;905.67;;;824.63;;
6485;SDS011;3276;48.490;9.222;2022-07-11T06:57:41;912.10;;;835.60;;
6485;SDS011;3276;48.490;9.222;2022-07-11T07:00:07;955.43;;;868.73;;
6485;SDS011;3276;48.490;9.222;2022-07-11T07:02:33;884.40;;;810.13;;
6485;SDS011;3276;48.490;9.222;2022-07-11T07:04:59;875.63;;;802.20;;
6485;SDS011;3276;48.490;9.222;2022-07-11T07:07:26;1018.33;;;918.47;;
6485;SDS011;3276;48.490;9.222;2022-07-11T07:09:52;964.30;;;879.00;;
6485;SDS011;3276;48.490;9.222;2022-07-11T07:12:19;1067.33;;;953.43;;
6485;SDS011;3276;48.490;9.222;2022-07-11T07:14:45;1058.50;;;948.60;;
6485;SDS011;3276;48.490;9.222;2022-07-11T07:17:10;937.57;;;858.40;;
6485;SDS011;3276;48.490;9.222;2022-07-11T07:19:36;962.63;;;879.20;;
6485;SDS011;3276;48.490;9.222;2022-07-11T07:22:02;944.53;;;863.10;;
6485;SDS011;3276;48.490;9.222;2022-07-11T07:24:28;1028.13;;;923.73;;
6485;SDS011;3276;48.490;9.222;2022-07-11T07:26:53;1023.43;;;917.03;;
6485;SDS011;3276;48.490;9.222;2022-07-11T07:29:19;1022.87;;;917.40;;
6485;SDS011;3276;48.490;9.222;2022-07-11T07:31:45;1040.90;;;936.73;;
6485;SDS011;3276;48.490;9.222;2022-07-11T07:34:12;1003.50;;;903.17;;
6485;SDS011;3276;48.490;9.222;2022-07-11T07:36:38;1056.67;;;935.13;;
6485;SDS011;3276;48.490;9.222;2022-07-11T07:39:04;1080.53;;;961.50;;
6485;SDS011;3276;48.490;9.222;2022-07-11T07:41:30;1180.50;;;977.30;;
6485;SDS011;3276;48.490;9.222;2022-07-11T07:43:55;1019.67;;;911.47;;
6485;SDS011;3276;48.490;9.222;2022-07-11T07:46:21;1085.67;;;926.97;;
6485;SDS011;3276;48.490;9.222;2022-07-11T07:48:47;1047.70;;;917.77;;
6485;SDS011;3276;48.490;9.222;2022-07-11T07:51:12;1021.77;;;909.23;;
6485;SDS011;3276;48.490;9.222;2022-07-11T07:53:38;1000.27;;;894.17;;
6485;SDS011;3276;48.490;9.222;2022-07-11T07:56:04;988.63;;;881.70;;
6485;SDS011;3276;48.490;9.222;2022-07-11T07:58:30;1158.20;;;973.63;;
6485;SDS011;3276;48.490;9.222;2022-07-11T08:00:56;928.63;;;837.23;;
6485;SDS011;3276;48.490;9.222;2022-07-11T08:03:45;904.07;;;822.07;;
6485;SDS011;3276;48.490;9.222;2022-07-11T08:06:11;1101.97;;;967.13;;
6485;SDS011;3276;48.490;9.222;2022-07-11T08:08:36;1206.10;;;979.90;;
6485;SDS011;3276;48.490;9.222;2022-07-11T08:11:02;1099.87;;;938.60;;
6485;SDS011;3276;48.490;9.222;2022-07-11T08:13:28;975.17;;;873.83;;
6485;SDS011;3276;48.490;9.222;2022-07-11T08:15:54;986.17;;;885.63;;
6485;SDS011;3276;48.490;9.222;2022-07-11T08:18:20;1095.47;;;971.30;;
6485;SDS011;3276;48.490;9.222;2022-07-11T08:20:45;1152.43;;;959.60;;
6485;SDS011;3276;48.490;9.222;2022-07-11T08:23:11;1064.80;;;939.53;;
6485;SDS011;3276;48.490;9.222;2022-07-11T08:25:37;1047.70;;;937.87;;
6485;SDS011;3276;48.490;9.222;2022-07-11T08:28:04;1056.17;;;940.80;;
6485;SDS011;3276;48.490;9.222;2022-07-11T08:30:30;1082.53;;;951.13;;
6485;SDS011;3276;48.490;9.222;2022-07-11T08:32:56;1154.60;;;975.80;;
6485;SDS011;3276;48.490;9.222;2022-07-11T08:35:22;1103.20;;;958.53;;
6485;SDS011;3276;48.490;9.222;2022-07-11T08:37:47;1074.23;;;956.53;;
6485;SDS011;3276;48.490;9.222;2022-07-11T08:40:13;983.77;;;884.03;;
6485;SDS011;3276;48.490;9.222;2022-07-11T08:42:42;898.53;;;821.53;;
6485;SDS011;3276;48.490;9.222;2022-07-11T08:45:15;978.73;;;881.10;;
6485;SDS011;3276;48.490;9.222;2022-07-11T08:47:42;1011.50;;;909.00;;
6485;SDS011;3276;48.490;9.222;2022-07-11T08:50:09;1053.97;;;939.77;;
6485;SDS011;3276;48.490;9.222;2022-07-11T08:52:36;970.43;;;875.03;;
6485;SDS011;3276;48.490;9.222;2022-07-11T08:55:02;973.90;;;875.57;;
6485;SDS011;3276;48.490;9.222;2022-07-11T08:57:32;964.80;;;875.40;;
6485;SDS011;3276;48.490;9.222;2022-07-11T08:59:58;972.47;;;885.43;;
6485;SDS011;3276;48.490;9.222;2022-07-11T09:02:25;920.23;;;836.83;;
6485;SDS011;3276;48.490;9.222;2022-07-11T09:04:55;1038.07;;;939.07;;
6485;SDS011;3276;48.490;9.222;2022-07-11T09:07:20;899.93;;;821.37;;
6485;SDS011;3276;48.490;9.222;2022-07-11T09:09:46;1002.43;;;910.97;;
6485;SDS011;3276;48.490;9.222;2022-07-11T09:12:12;878.40;;;807.53;;
6485;SDS011;3276;48.490;9.222;2022-07-11T09:14:42;872.37;;;804.13;;
6485;SDS011;3276;48.490;9.222;2022-07-11T09:17:12;989.23;;;899.97;;
6485;SDS011;3276;48.490;9.222;2022-07-11T09:19:38;1051.67;;;951.03;;
6485;SDS011;3276;48.490;9.222;2022-07-11T09:25:02;982.87;;;890.50;;
6485;SDS011;3276;48.490;9.222;2022-07-11T09:28:00;936.10;;;857.30;;
6485;SDS011;3276;48.490;9.222;2022-07-11T09:30:30;1048.03;;;954.63;;
6485;SDS011;3276;48.490;9.222;2022-07-11T09:32:58;975.90;;;888.00;;
6485;SDS011;3276;48.490;9.222;2022-07-11T09:35:26;973.33;;;882.73;;
6485;SDS011;3276;48.490;9.222;2022-07-11T09:37:55;790.20;;;736.87;;
6485;SDS011;3276;48.490;9.222;2022-07-11T09:40:21;880.50;;;810.57;;
6485;SDS011;3276;48.490;9.222;2022-07-11T09:42:51;883.83;;;811.43;;
6485;SDS011;3276;48.490;9.222;2022-07-11T09:45:19;1036.73;;;938.53;;
6485;SDS011;3276;48.490;9.222;2022-07-11T09:47:47;925.97;;;846.77;;
6485;SDS011;3276;48.490;9.222;2022-07-11T09:50:20;866.90;;;795.57;;
6485;SDS011;3276;48.490;9.222;2022-07-11T09:53:03;867.50;;;801.23;;
6485;SDS011;3276;48.490;9.222;2022-07-11T09:55:45;702.97;;;654.33;;
6485;SDS011;3276;48.490;9.222;2022-07-11T09:58:12;1001.83;;;914.27;;
6485;SDS011;3276;48.490;9.222;2022-07-11T10:00:42;790.50;;;728.73;;
6485;SDS011;3276;48.490;9.222;2022-07-11T10:03:09;951.17;;;875.03;;
6485;SDS011;3276;48.490;9.222;2022-07-11T10:05:36;823.97;;;761.07;;
6485;SDS011;3276;48.490;9.222;2022-07-11T10:08:03;1033.27;;;942.23;;
6485;SDS011;3276;48.490;9.222;2022-07-11T10:10:30;833.27;;;770.37;;
6485;SDS011;3276;48.490;9.222;2022-07-11T10:12:57;892.63;;;819.27;;
6485;SDS011;3276;48.490;9.222;2022-07-11T10:15:23;951.80;;;870.70;;
6485;SDS011;3276;48.490;9.222;2022-07-11T10:20:58;820.00;;;757.03;;
6485;SDS011;3276;48.490;9.222;2022-07-11T10:26:50;1006.23;;;916.70;;
6485;SDS011;3276;48.490;9.222;2022-07-11T10:32:04;978.37;;;892.80;;
6485;SDS011;3276;48.490;9.222;2022-07-11T10:34:30;795.77;;;736.83;;
6485;SDS011;3276;48.490;9.222;2022-07-11T10:37:00;808.13;;;748.60;;
6485;SDS011;3276;48.490;9.222;2022-07-11T10:39:27;907.73;;;836.60;;
6485;SDS011;3276;48.490;9.222;2022-07-11T10:41:54;794.87;;;737.10;;
6485;SDS011;3276;48.490;9.222;2022-07-11T10:44:23;897.77;;;817.97;;
6485;SDS011;3276;48.490;9.222;2022-07-11T10:46:49;818.40;;;757.00;;
6485;SDS011;3276;48.490;9.222;2022-07-11T10:49:17;871.83;;;800.43;;
6485;SDS011;3276;48.490;9.222;2022-07-11T10:51:50;766.73;;;713.33;;
6485;SDS011;3276;48.490;9.222;2022-07-11T11:05:42;783.70;;;731.13;;
6485;SDS011;3276;48.490;9.222;2022-07-11T11:13:44;933.23;;;851.80;;
6485;SDS011;3276;48.490;9.222;2022-07-11T11:16:22;927.93;;;850.13;;
6485;SDS011;3276;48.490;9.222;2022-07-11T11:18:48;1005.73;;;911.50;;
6485;SDS011;3276;48.490;9.222;2022-07-11T11:21:18;1023.30;;;927.40;;
6485;SDS011;3276;48.490;9.222;2022-07-11T11:23:45;845.90;;;774.17;;
6485;SDS011;3276;48.490;9.222;2022-07-11T11:26:23;773.37;;;717.67;;
6485;SDS011;3276;48.490;9.222;2022-07-11T11:28:56;852.67;;;782.37;;
6485;SDS011;3276;48.490;9.222;2022-07-11T11:31:26;824.03;;;759.10;;
6485;SDS011;3276;48.490;9.222;2022-07-11T11:33:52;920.20;;;839.60;;
6485;SDS011;3276;48.490;9.222;2022-07-11T11:36:21;858.60;;;791.87;;
6485;SDS011;3276;48.490;9.222;2022-07-11T11:38:48;952.53;;;866.60;;
6485;SDS011;3276;48.490;9.222;2022-07-11T11:41:14;807.60;;;749.97;;
6485;SDS011;3276;48.490;9.222;2022-07-11T11:44:00;948.63;;;868.30;;
6485;SDS011;3276;48.490;9.222;2022-07-11T11:46:30;879.30;;;805.70;;
6485;SDS011;3276;48.490;9.222;2022-07-11T11:48:59;856.53;;;791.67;;
6485;SDS011;3276;48.490;9.222;2022-07-11T11:51:29;790.20;;;734.90;;
6485;SDS011;3276;48.490;9.222;2022-07-11T11:53:56;865.20;;;795.37;;
6485;SDS011;3276;48.490;9.222;2022-07-11T11:56:30;912.67;;;842.37;;
6485;SDS011;3276;48.490;9.222;2022-07-11T11:59:01;1083.73;;;977.63;;
6485;SDS011;3276;48.490;9.222;2022-07-11T12:01:33;1086.83;;;982.30;;
6485;SDS011;3276;48.490;9.222;2022-07-11T12:04:00;1004.07;;;914.63;;
6485;SDS011;3276;48.490;9.222;2022-07-11T12:06:28;811.70;;;754.70;;
6485;SDS011;3276;48.490;9.222;2022-07-11T12:11:29;997.70;;;902.57;;
6485;SDS011;3276;48.490;9.222;2022-07-11T12:13:56;924.40;;;842.40;;
6485;SDS011;3276;48.490;9.222;2022-07-11T12:16:27;915.13;;;841.30;;
6485;SDS011;3276;48.490;9.222;2022-07-11T12:19:09;959.40;;;873.90;;
6485;SDS011;3276;48.490;9.222;2022-07-11T12:21:37;970.70;;;887.20;;
6485;SDS011;3276;48.490;9.222;2022-07-11T12:24:06;809.00;;;753.60;;
6485;SDS011;3276;48.490;9.222;2022-07-11T12:26:34;852.87;;;789.63;;
6485;SDS011;3276;48.490;9.222;2022-07-11T12:31:42;843.17;;;774.23;;
6485;SDS011;3276;48.490;9.222;2022-07-11T12:34:08;1010.20;;;921.17;;
6485;SDS011;3276;48.490;9.222;2022-07-11T12:36:34;856.37;;;791.73;;
6485;SDS011;3276;48.490;9.222;2022-07-11T12:38:59;862.90;;;798.83;;
6485;SDS011;3276;48.490;9.222;2022-07-11T12:41:25;794.57;;;738.27;;
6485;SDS011;3276;48.490;9.222;2022-07-11T12:43:52;858.07;;;792.90;;
6485;SDS011;3276;48.490;9.222;2022-07-11T12:46:37;928.57;;;847.33;;
6485;SDS011;3276;48.490;9.222;2022-07-11T12:49:09;849.07;;;781.23;;
6485;SDS011;3276;48.490;9.222;2022-07-11T12:51:40;868.23;;;802.33;;
6485;SDS011;3276;48.490;9.222;2022-07-11T12:54:08;887.03;;;815.17;;
6485;SDS011;3276;48.490;9.222;2022-07-11T12:56:37;958.67;;;874.23;;
6485;SDS011;3276;48.490;9.222;2022-07-11T12:59:03;843.97;;;780.97;;
6485;SDS011;3276;48.490;9.222;2022-07-11T13:01:30;719.13;;;671.00;;
6485;SDS011;3276;48.490;9.222;2022-07-11T13:03:56;1141.17;;;999.90;;
6485;SDS011;3276;48.490;9.222;2022-07-11T13:06:22;843.70;;;777.57;;
6485;SDS011;3276;48.490;9.222;2022-07-11T13:09:07;814.03;;;753.13;;
6485;SDS011;3276;48.490;9.222;2022-07-11T13:11:34;860.33;;;796.33;;
6485;SDS011;3276;48.490;9.222;2022-07-11T13:14:00;975.57;;;885.60;;
6485;SDS011;3276;48.490;9.222;2022-07-11T13:16:26;887.20;;;818.87;;
6485;SDS011;3276;48.490;9.222;2022-07-11T13:18:51;887.87;;;816.27;;
6485;SDS011;3276;48.490;9.222;2022-07-11T13:21:18;970.67;;;881.63;;
6485;SDS011;3276;48.490;9.222;2022-07-11T13:23:45;920.10;;;843.23;;
6485;SDS011;3276;48.490;9.222;2022-07-11T13:26:11;1014.10;;;923.80;;
6485;SDS011;3276;48.490;9.222;2022-07-11T13:28:39;967.67;;;875.60;;
6485;SDS011;3276;48.490;9.222;2022-07-11T13:31:05;954.87;;;870.07;;
6485;SDS011;3276;48.490;9.222;2022-07-11T13:33:31;1002.17;;;909.83;;
6485;SDS011;3276;48.490;9.222;2022-07-11T13:35:57;938.70;;;853.20;;
6485;SDS011;3276;48.490;9.222;2022-07-11T13:38:23;1046.37;;;949.33;;
6485;SDS011;3276;48.490;9.222;2022-07-11T13:40:49;966.83;;;879.40;;
6485;SDS011;3276;48.490;9.222;2022-07-11T13:43:15;947.87;;;864.33;;
6485;SDS011;3276;48.490;9.222;2022-07-11T13:45:41;924.60;;;846.60;;
6485;SDS011;3276;48.490;9.222;2022-07-11T13:48:09;957.30;;;876.80;;
6485;SDS011;3276;48.490;9.222;2022-07-11T13:50:35;867.67;;;800.47;;
6485;SDS011;3276;48.490;9.222;2022-07-11T13:53:01;983.80;;;896.90;;
6485;SDS011;3276;48.490;9.222;2022-07-11T13:55:27;840.60;;;775.43;;
6485;SDS011;3276;48.490;9.222;2022-07-11T13:57:56;990.77;;;902.83;;
6485;SDS011;3276;48.490;9.222;2022-07-11T14:00:24;971.80;;;884.80;;
6485;SDS011;3276;48.490;9.222;2022-07-11T14:02:50;1007.43;;;918.13;;
6485;SDS011;3276;48.490;9.222;2022-07-11T14:05:16;850.20;;;783.97;;
6485;SDS011;3276;48.490;9.222;2022-07-11T14:07:43;898.77;;;826.47;;
6485;SDS011;3276;48.490;9.222;2022-07-11T14:10:10;956.47;;;877.10;;
6485;SDS011;3276;48.490;9.222;2022-07-11T14:12:35;921.20;;;840.67;;
6485;SDS011;3276;48.490;9.222;2022-07-11T14:15:01;963.80;;;881.07;;
6485;SDS011;3276;48.490;9.222;2022-07-11T14:17:27;937.73;;;854.13;;
6485;SDS011;3276;48.490;9.222;2022-07-11T14:19:53;924.97;;;844.23;;
6485;SDS011;3276;48.490;9.222;2022-07-11T14:22:20;933.50;;;856.80;;
6485;SDS011;3276;48.490;9.222;2022-07-11T14:24:46;857.10;;;790.40;;
6485;SDS011;3276;48.490;9.222;2022-07-11T14:27:12;823.37;;;761.10;;
6485;SDS011;3276;48.490;9.222;2022-07-11T14:29:40;931.87;;;852.90;;
6485;SDS011;3276;48.490;9.222;2022-07-11T14:32:06;939.90;;;858.33;;
6485;SDS011;3276;48.490;9.222;2022-07-11T14:34:32;894.17;;;820.87;;
6485;SDS011;3276;48.490;9.222;2022-07-11T14:36:58;898.33;;;820.63;;
6485;SDS011;3276;48.490;9.222;2022-07-11T14:39:23;795.43;;;737.10;;
6485;SDS011;3276;48.490;9.222;2022-07-11T14:41:49;1070.03;;;965.03;;
6485;SDS011;3276;48.490;9.222;2022-07-11T14:44:15;1137.97;;;999.90;;
6485;SDS011;3276;48.490;9.222;2022-07-11T14:46:41;867.93;;;794.83;;
6485;SDS011;3276;48.490;9.222;2022-07-11T14:49:07;825.20;;;767.37;;
6485;SDS011;3276;48.490;9.222;2022-07-11T14:51:33;962.47;;;876.90;;